Schriever, Louisiana
Current Conditions -  °F | °C
As of 4:55 AM on Sunday 23 Nov 2014 (Local Time) from KHUM Reporting Station
Light Rain Light Rain  
Wind Chill: 66°   Ceiling: 500
Heat Index: 66°   Visibility: 7mi
Dew Point: 65°   Wind: 6mph
Humidity: 98%   Direction: 100°E
Pressure: 29.73"   Gusts: NA
Location:  29.74°N, 90.81°W
Report Text: KHUM 231055Z AUTO 10005KT 7SM -RA OVC005 19/19 A2973 RMK AO2 LTG DSNT ALQS T01880185
Loading
Personal Weather Stations






























Interactive Weather Map New forecast layout! Learn more

10-Day Weather Forecast

Advertisements
Track Severe Weather on mobile